Time;durP1;ratioP1;P1;durP2;ratioP2;P2;SDS_P1;SDS_P2;PMS_P1;PMS_P2;Temp;Humidity;BMP_temperature;BMP_pressure;BME280_temperature;BME280_humidity;BME280_pressure;Samples;Min_cycle;Max_cycle;Signal;HPM_P1;HPM_P2
2022/12/02 00:01:20;;;;;;;104.93;37.92;;;;;;;12.68;100.00;102482.69;5078950;28;20060;-58
2022/12/02 00:03:47;;;;;;;99.50;37.10;;;;;;;12.31;100.00;102477.66;5081892;28;20037;-59
2022/12/02 00:06:20;;;;;;;102.30;37.40;;;;;;;12.69;100.00;102485.22;5084488;28;20029;-57
2022/12/02 00:08:45;;;;;;;114.35;38.42;;;;;;;12.58;100.00;102485.56;5081727;28;20036;-59
2022/12/02 00:11:25;;;;;;;98.30;38.23;;;;;;;12.31;100.00;102471.47;5083398;28;20024;-58
2022/12/02 00:13:51;;;;;;;108.18;38.58;;;;;;;11.73;100.00;102469.50;5082295;28;20282;-59
2022/12/02 00:16:22;;;;;;;109.57;38.00;;;;;;;12.96;100.00;102475.13;5085510;28;20037;-56
2022/12/02 00:18:49;;;;;;;105.50;37.40;;;;;;;12.64;100.00;102470.63;5078771;28;20040;-56
2022/12/02 00:21:16;;;;;;;105.90;39.30;;;;;;;13.32;100.00;102474.66;5083964;28;20058;-60
2022/12/02 00:23:42;;;;;;;106.75;39.38;;;;;;;13.38;100.00;102467.75;5080203;28;20036;-58
2022/12/02 00:26:07;;;;;;;94.88;34.83;;;;;;;13.20;100.00;102465.31;5083118;28;20055;-60
2022/12/02 00:28:33;;;;;;;101.00;38.60;;;;;;;13.42;100.00;102465.56;5079665;28;20033;-56
2022/12/02 00:30:58;;;;;;;106.93;39.90;;;;;;;12.58;100.00;102464.94;5083626;28;20036;-57
2022/12/02 00:33:24;;;;;;;114.65;40.90;;;;;;;13.09;100.00;102462.97;5079397;28;20098;-57
2022/12/02 00:35:49;;;;;;;104.17;40.27;;;;;;;13.32;100.00;102469.28;5083502;28;20040;-59
2022/12/02 00:38:15;;;;;;;107.25;41.25;;;;;;;12.79;100.00;102457.34;5079497;28;20028;-58
2022/12/02 00:40:41;;;;;;;121.03;40.10;;;;;;;12.09;100.00;102451.50;5084843;28;20034;-59
2022/12/02 00:48:35;;;;;;;145.60;43.28;;;;;;;10.71;100.00;102454.09;5081373;28;20104;-59
2022/12/02 00:51:01;;;;;;;134.57;39.30;;;;;;;10.73;100.00;102457.44;5079456;28;20037;-59
2022/12/02 00:53:27;;;;;;;132.65;44.33;;;;;;;10.71;100.00;102448.75;5081403;28;20306;-57
2022/12/02 00:55:52;;;;;;;132.73;39.97;;;;;;;10.71;100.00;102447.88;5077360;28;20092;-58
2022/12/02 00:58:18;;;;;;;141.60;42.40;;;;;;;10.33;100.00;102456.97;5080305;28;20101;-56
2022/12/02 01:00:43;;;;;;;134.03;42.37;;;;;;;10.43;100.00;102456.91;5078155;28;20033;-57
2022/12/02 01:03:09;;;;;;;146.15;42.17;;;;;;;10.51;100.00;102444.59;5087439;28;20033;-55
2022/12/02 01:05:34;;;;;;;128.73;38.08;;;;;;;10.60;100.00;102446.31;5081213;28;20040;-58
2022/12/02 01:08:00;;;;;;;144.55;43.97;;;;;;;10.50;100.00;102442.91;5083621;28;20037;-53
2022/12/02 01:10:25;;;;;;;144.67;41.80;;;;;;;10.50;100.00;102435.72;5081440;28;20036;-54
2022/12/02 01:12:52;;;;;;;149.60;42.30;;;;;;;10.50;100.00;102434.88;5081862;28;20044;-58
2022/12/02 01:15:19;;;;;;;132.82;41.33;;;;;;;10.55;100.00;102444.13;5081087;28;20266;-57
2022/12/02 01:17:45;;;;;;;137.93;41.03;;;;;;;10.70;100.00;102435.50;5084391;28;20036;-57
2022/12/02 01:20:11;;;;;;;144.83;43.57;;;;;;;10.40;100.00;102435.81;5081447;28;20025;-58
2022/12/02 01:22:36;;;;;;;140.02;39.42;;;;;;;10.41;100.00;102442.84;5083623;28;20051;-58
2022/12/02 01:25:02;;;;;;;116.43;37.40;;;;;;;10.43;100.00;102440.84;5080249;28;20044;-58
2022/12/02 01:27:27;;;;;;;130.20;38.90;;;;;;;10.50;100.00;102446.44;5082116;28;20033;-59
2022/12/02 01:29:53;;;;;;;119.75;37.72;;;;;;;10.69;100.00;102445.38;5080551;28;20028;-57
2022/12/02 01:32:19;;;;;;;131.23;41.17;;;;;;;10.59;100.00;102444.63;5078744;28;20049;-58
2022/12/02 01:34:45;;;;;;;140.02;40.95;;;;;;;10.55;100.00;102448.63;5078847;28;20027;-56
2022/12/02 01:37:11;;;;;;;128.25;40.83;;;;;;;10.49;100.00;102438.56;5080945;28;20035;-57
2022/12/02 01:39:37;;;;;;;135.83;38.83;;;;;;;10.37;100.00;102436.06;5079667;28;20037;-58
2022/12/02 01:42:03;;;;;;;119.90;37.27;;;;;;;10.55;100.00;102437.91;5080960;28;20032;-56
2022/12/02 01:44:29;;;;;;;136.00;40.50;;;;;;;10.50;100.00;102437.56;5085259;28;20093;-58
2022/12/02 01:46:54;;;;;;;115.45;37.10;;;;;;;10.55;100.00;102440.59;5081838;28;20033;-58
2022/12/02 01:49:21;;;;;;;106.05;35.22;;;;;;;10.54;100.00;102430.88;5065318;28;20036;-59
2022/12/02 01:51:47;;;;;;;108.70;37.40;;;;;;;10.70;100.00;102438.19;5080743;28;20048;-59
2022/12/02 01:54:12;;;;;;;85.43;26.87;;;;;;;10.64;100.00;102433.47;5080308;28;20041;-55
2022/12/02 01:56:38;;;;;;;109.18;34.70;;;;;;;10.75;100.00;102438.59;5082770;28;20276;-57
2022/12/02 01:59:04;;;;;;;115.63;38.78;;;;;;;10.70;100.00;102436.38;5084489;28;20033;-57
2022/12/02 02:01:32;;;;;;;114.40;36.47;;;;;;;10.72;100.00;102445.06;5064673;28;20032;-56
2022/12/02 02:03:59;;;;;;;104.47;33.88;;;;;;;10.80;100.00;102452.31;5079720;28;20032;-57
2022/12/02 02:06:28;;;;;;;106.72;34.55;;;;;;;10.80;100.00;102438.94;5079626;28;20033;-58
2022/12/02 02:08:55;;;;;;;89.43;34.13;;;;;;;10.80;100.00;102446.13;5094215;28;20094;-55
2022/12/02 02:11:21;;;;;;;108.93;37.83;;;;;;;10.81;100.00;102453.16;5084362;28;20036;-58
2022/12/02 02:13:48;;;;;;;94.53;33.20;;;;;;;10.83;100.00;102440.44;5081519;28;20029;-58
2022/12/02 02:16:14;;;;;;;102.50;35.65;;;;;;;10.71;100.00;102439.88;5080846;28;20043;-60
2022/12/02 02:18:41;;;;;;;95.97;33.15;;;;;;;10.96;100.00;102440.88;5079587;28;20068;-57
2022/12/02 02:21:09;;;;;;;101.68;34.63;;;;;;;10.76;100.00;102435.72;5075319;28;20028;-57
2022/12/02 02:23:36;;;;;;;93.25;32.72;;;;;;;10.74;100.00;102435.06;5076184;28;20036;-59
2022/12/02 02:26:02;;;;;;;92.68;31.90;;;;;;;10.61;100.00;102437.31;5077706;28;20055;-58
2022/12/02 02:28:33;;;;;;;93.07;31.63;;;;;;;10.58;100.00;102437.59;5077522;28;20052;-57
2022/12/02 02:30:59;;;;;;;92.65;32.45;;;;;;;10.68;100.00;102435.69;5080611;28;20029;-55
2022/12/02 02:33:33;;;;;;;92.70;33.03;;;;;;;10.61;100.00;102426.63;5077920;28;20044;-59
2022/12/02 02:36:01;;;;;;;100.75;31.45;;;;;;;10.69;100.00;102423.97;5081009;28;20064;-58
2022/12/02 02:38:29;;;;;;;96.35;33.88;;;;;;;10.69;100.00;102423.97;5080547;28;20540;-57
2022/12/02 02:40:57;;;;;;;96.18;31.35;;;;;;;10.70;100.00;102414.97;5086173;28;20036;-57
2022/12/02 02:43:26;;;;;;;95.28;31.50;;;;;;;10.64;100.00;102415.59;5068900;28;20037;-58
2022/12/02 02:45:53;;;;;;;96.18;32.60;;;;;;;10.42;100.00;102408.91;5080467;28;20025;-57
2022/12/02 02:48:21;;;;;;;93.78;31.70;;;;;;;10.36;100.00;102410.31;5081643;28;20028;-56
2022/12/02 02:50:48;;;;;;;99.40;33.83;;;;;;;10.49;100.00;102414.47;5081723;28;20040;-58
2022/12/02 02:53:22;;;;;;;107.45;32.33;;;;;;;10.56;100.00;102418.19;5084266;28;20044;-56
2022/12/02 02:55:50;;;;;;;96.57;33.42;;;;;;;10.58;100.00;102413.53;5081532;28;20039;-57
2022/12/02 02:58:22;;;;;;;101.60;33.20;;;;;;;10.40;100.00;102411.75;5085633;28;20033;-58
2022/12/02 03:01:04;;;;;;;99.65;33.15;;;;;;;10.50;100.00;102408.13;5078922;28;20025;-58
2022/12/02 03:03:39;;;;;;;105.22;34.50;;;;;;;10.52;100.00;102407.00;5084921;28;20028;-58
2022/12/02 03:06:08;;;;;;;92.75;31.63;;;;;;;10.36;100.00;102404.97;5083465;28;20040;-57
2022/12/02 03:08:36;;;;;;;96.82;32.80;;;;;;;10.50;100.00;102405.47;5082051;28;20033;-58
2022/12/02 03:11:02;;;;;;;97.55;32.42;;;;;;;10.44;100.00;102399.75;5083334;28;20028;-59
2022/12/02 03:13:32;;;;;;;108.82;33.60;;;;;;;10.36;100.00;102402.31;5083584;28;20033;-57
2022/12/02 03:15:58;;;;;;;102.75;33.72;;;;;;;10.63;100.00;102397.00;5082251;28;20044;-59
2022/12/02 03:18:24;;;;;;;104.55;32.45;;;;;;;10.72;100.00;102396.91;5083469;28;20032;-59
2022/12/02 03:20:49;;;;;;;88.70;32.13;;;;;;;10.59;100.00;102380.41;5083412;28;20039;-57
2022/12/02 03:23:16;;;;;;;102.40;34.17;;;;;;;10.45;100.00;102379.16;5085340;28;20029;-55
2022/12/02 03:25:42;;;;;;;102.38;34.22;;;;;;;10.49;100.00;102385.06;5083314;28;20028;-56
2022/12/02 03:28:07;;;;;;;68.50;22.83;;;;;;;10.32;100.00;102379.53;5087358;28;20101;-59
2022/12/02 03:30:33;;;;;;;85.83;29.73;;;;;;;10.17;100.00;102377.44;5086118;28;20295;-59
2022/12/02 03:32:59;;;;;;;89.37;29.03;;;;;;;10.39;100.00;102371.75;5085473;28;20036;-58
2022/12/02 03:35:25;;;;;;;88.78;28.52;;;;;;;10.25;100.00;102373.16;5085937;28;20028;-57
2022/12/02 03:37:51;;;;;;;81.95;28.20;;;;;;;10.28;100.00;102381.72;5085613;28;20052;-57
2022/12/02 03:40:16;;;;;;;91.88;28.67;;;;;;;10.33;100.00;102387.44;5083247;28;20063;-58
2022/12/02 03:42:42;;;;;;;80.87;26.40;;;;;;;10.19;100.00;102380.81;5085488;28;20225;-57
2022/12/02 03:45:10;;;;;;;72.05;27.70;;;;;;;10.27;100.00;102384.53;5083481;28;20265;-54
2022/12/02 03:47:37;;;;;;;84.05;29.25;;;;;;;10.13;100.00;102378.72;5084745;28;20109;-56
2022/12/02 03:50:03;;;;;;;79.25;26.45;;;;;;;10.00;100.00;102387.13;5086605;28;20041;-56
2022/12/02 03:52:29;;;;;;;85.93;26.95;;;;;;;10.07;100.00;102381.22;5083353;28;20049;-57
2022/12/02 03:54:55;;;;;;;80.82;27.02;;;;;;;10.07;100.00;102375.84;5087129;28;20051;-58
2022/12/02 03:57:21;;;;;;;79.57;26.67;;;;;;;10.08;100.00;102373.00;5085444;28;20107;-55
2022/12/02 03:59:47;;;;;;;77.85;25.90;;;;;;;10.06;100.00;102374.19;5082394;28;20032;-59
2022/12/02 04:02:12;;;;;;;64.18;20.17;;;;;;;9.77;100.00;102381.44;5080679;28;20051;-59
2022/12/02 04:04:38;;;;;;;71.53;25.37;;;;;;;9.87;100.00;102381.34;5085491;28;20036;-59
2022/12/02 04:07:03;;;;;;;80.95;27.60;;;;;;;9.96;100.00;102379.59;5082446;28;20028;-57
2022/12/02 04:09:29;;;;;;;78.50;29.50;;;;;;;9.96;100.00;102384.94;5080155;28;20036;-58
2022/12/02 04:11:54;;;;;;;76.07;26.70;;;;;;;10.06;100.00;102380.34;5083877;28;20041;-56
2022/12/02 04:14:20;;;;;;;68.57;25.60;;;;;;;9.89;100.00;102380.19;5085442;28;20029;-57
2022/12/02 04:16:45;;;;;;;69.13;25.30;;;;;;;9.87;100.00;102376.00;5083963;28;20284;-57
2022/12/02 04:19:12;;;;;;;73.60;24.33;;;;;;;9.93;100.00;102374.56;5085834;28;20036;-58
2022/12/02 04:21:38;;;;;;;67.10;23.58;;;;;;;9.96;100.00;102380.44;5085525;28;20033;-56
2022/12/02 04:24:04;;;;;;;69.13;23.45;;;;;;;9.95;100.00;102369.91;5084240;28;20037;-57
2022/12/02 04:26:30;;;;;;;64.05;22.30;;;;;;;10.01;100.00;102370.09;5081946;28;20032;-58
2022/12/02 04:28:56;;;;;;;64.15;20.30;;;;;;;9.97;100.00;102367.91;5084212;28;20032;-58
2022/12/02 04:31:22;;;;;;;57.85;20.42;;;;;;;9.76;100.00;102369.06;5081732;28;20032;-58
2022/12/02 04:33:48;;;;;;;55.33;20.13;;;;;;;9.74;100.00;102365.72;5082347;28;20052;-61
2022/12/02 04:36:14;;;;;;;;;;;;;;;9.35;100.00;102361.47;5080954;28;20055;-57
2022/12/02 04:38:40;;;;;;;54.55;18.13;;;;;;;9.55;100.00;102355.97;5083250;28;19913;-56
2022/12/02 04:41:06;;;;;;;62.00;18.92;;;;;;;9.60;100.00;102353.72;5083288;28;20040;-57
2022/12/02 04:43:32;;;;;;;49.87;17.63;;;;;;;9.74;100.00;102344.34;5077807;28;20045;-54
2022/12/02 04:45:57;;;;;;;62.63;18.70;;;;;;;9.74;100.00;102345.16;5079863;28;20179;-58
2022/12/02 04:48:23;;;;;;;44.22;18.00;;;;;;;9.68;100.00;102328.91;5084957;28;20043;-58
2022/12/02 04:50:48;;;;;;;52.47;19.40;;;;;;;9.68;100.00;102334.25;5080139;28;20033;-57
2022/12/02 04:53:14;;;;;;;55.00;17.60;;;;;;;9.76;100.00;102347.69;5077389;28;20317;-55
2022/12/02 04:55:39;;;;;;;50.23;16.47;;;;;;;9.85;100.00;102345.94;5081890;28;20029;-60
2022/12/02 04:58:05;;;;;;;49.70;17.30;;;;;;;9.46;100.00;102333.72;5079442;28;20039;-58
2022/12/02 05:00:30;;;;;;;52.40;17.10;;;;;;;9.61;100.00;102336.69;5081244;28;20096;-59
2022/12/02 05:02:56;;;;;;;44.33;16.43;;;;;;;9.64;100.00;102343.56;5083456;28;20254;-58
2022/12/02 05:05:22;;;;;;;51.10;16.95;;;;;;;9.53;100.00;102334.78;5082974;28;20039;-58
2022/12/02 05:07:47;;;;;;;45.75;15.75;;;;;;;9.50;100.00;102340.44;5084023;28;20073;-57
2022/12/02 05:10:12;;;;;;;44.80;15.80;;;;;;;9.08;100.00;102348.97;5083609;28;20033;-58
2022/12/02 05:12:38;;;;;;;52.08;17.73;;;;;;;9.11;100.00;102343.34;5083296;28;20063;-58
2022/12/02 05:15:04;;;;;;;44.43;15.80;;;;;;;9.33;100.00;102329.56;5082258;28;20071;-57
2022/12/02 05:17:32;;;;;;;53.55;16.77;;;;;;;9.50;100.00;102327.09;5081205;28;20100;-58
2022/12/02 05:19:57;;;;;;;45.25;15.73;;;;;;;9.55;100.00;102323.94;5083119;28;20056;-59
2022/12/02 05:22:23;;;;;;;47.83;16.13;;;;;;;9.50;100.00;102318.22;5081902;28;20055;-59
2022/12/02 05:24:48;;;;;;;51.13;16.83;;;;;;;9.54;100.00;102323.13;5081570;28;20067;-58
2022/12/02 05:27:15;;;;;;;46.40;17.00;;;;;;;9.65;100.00;102332.72;5080384;28;20020;-58
2022/12/02 05:29:40;;;;;;;52.38;16.98;;;;;;;9.50;100.00;102329.75;5077756;28;20036;-57
2022/12/02 05:32:06;;;;;;;42.17;16.53;;;;;;;9.54;100.00;102320.44;5080029;28;20036;-56
2022/12/02 05:34:32;;;;;;;50.72;17.00;;;;;;;9.50;100.00;102323.56;5080215;28;20060;-56
2022/12/02 05:36:58;;;;;;;49.63;17.77;;;;;;;9.55;100.00;102324.78;5081036;28;20067;-58
2022/12/02 05:39:24;;;;;;;45.07;15.70;;;;;;;9.39;100.00;102325.47;5079058;28;20029;-57
2022/12/02 05:41:49;;;;;;;46.43;15.47;;;;;;;9.51;100.00;102328.75;5080949;28;20028;-57
2022/12/02 05:44:19;;;;;;;47.43;17.03;;;;;;;9.54;100.00;102328.44;5080804;28;20029;-57
2022/12/02 05:46:45;;;;;;;39.75;14.75;;;;;;;9.35;100.00;102333.91;5081004;28;20025;-54
2022/12/02 05:49:16;;;;;;;37.47;15.52;;;;;;;9.20;100.00;102331.75;5080695;28;20044;-55
2022/12/02 05:51:42;;;;;;;44.90;14.68;;;;;;;9.04;100.00;102325.25;5078365;28;20029;-58
2022/12/02 05:54:16;;;;;;;46.47;15.70;;;;;;;9.21;100.00;102330.75;5080851;28;20056;-57
2022/12/02 05:56:42;;;;;;;49.42;17.40;;;;;;;9.11;100.00;102322.84;5080314;28;20039;-54
2022/12/02 05:59:13;;;;;;;51.93;16.80;;;;;;;9.16;100.00;102325.03;5079688;28;20021;-58
2022/12/02 06:01:40;;;;;;;45.00;15.52;;;;;;;9.28;100.00;102325.66;5080210;28;20032;-57
2022/12/02 06:04:19;;;;;;;46.88;16.85;;;;;;;9.24;100.00;102313.63;5080817;28;20033;-56
2022/12/02 06:06:45;;;;;;;54.20;17.23;;;;;;;9.33;100.00;102318.03;5064296;28;20047;-58
2022/12/02 06:09:24;;;;;;;39.70;14.77;;;;;;;9.30;100.00;102321.88;5080527;28;20056;-57
2022/12/02 06:11:51;;;;;;;43.63;17.08;;;;;;;9.22;100.00;102310.25;5083225;28;20036;-56
2022/12/02 06:14:19;;;;;;;47.65;17.20;;;;;;;9.18;100.00;102317.72;5084467;28;20101;-57
2022/12/02 06:16:49;;;;;;;47.80;15.98;;;;;;;9.40;100.00;102315.63;5085441;28;20028;-57
2022/12/02 06:19:22;;;;;;;44.10;15.38;;;;;;;9.17;100.00;102318.72;5083108;28;20033;-57
2022/12/02 06:21:49;;;;;;;46.53;16.65;;;;;;;9.23;100.00;102320.78;5087416;28;20099;-51
2022/12/02 06:24:15;;;;;;;48.53;17.52;;;;;;;9.32;100.00;102311.88;5087652;28;20056;-52
2022/12/02 06:26:41;;;;;;;46.15;16.33;;;;;;;9.33;100.00;102321.56;5082701;28;20040;-55
2022/12/02 06:29:14;;;;;;;48.70;17.80;;;;;;;9.12;100.00;102315.66;5085219;28;20032;-53
2022/12/02 06:31:41;;;;;;;42.50;16.20;;;;;;;9.10;100.00;102317.63;5085003;28;20104;-55
2022/12/02 06:34:26;;;;;;;48.33;15.43;;;;;;;9.35;100.00;102313.41;5080324;28;20060;-53
2022/12/02 06:36:52;;;;;;;40.72;15.45;;;;;;;9.69;100.00;102314.56;5084746;28;20055;-52
2022/12/02 06:39:21;;;;;;;44.30;15.43;;;;;;;9.38;100.00;102322.94;5081199;28;20044;-56
2022/12/02 06:41:49;;;;;;;48.28;16.95;;;;;;;9.37;100.00;102321.25;5084085;28;20033;-56
2022/12/02 06:47:32;;;;;;;38.38;14.77;;;;;;;9.35;100.00;102317.91;5081920;28;20092;-53
2022/12/02 06:50:27;;;;;;;48.95;14.90;;;;;;;9.38;100.00;102318.44;5080922;28;20032;-53
2022/12/02 06:53:01;;;;;;;39.75;15.20;;;;;;;9.38;100.00;102317.59;5081130;28;20080;-56
2022/12/02 06:55:36;;;;;;;40.05;15.57;;;;;;;9.52;100.00;102316.22;5081932;28;20040;-58
2022/12/02 06:58:25;;;;;;;42.67;15.48;;;;;;;9.42;100.00;102319.81;5081280;28;20025;-54
2022/12/02 07:00:51;;;;;;;40.22;13.98;;;;;;;9.53;100.00;102315.25;5080335;28;20049;-58
2022/12/02 07:03:31;;;;;;;52.08;17.95;;;;;;;9.47;100.00;102317.53;5082584;28;20043;-54
2022/12/02 07:06:09;;;;;;;45.47;18.08;;;;;;;9.53;100.00;102321.44;5084009;28;20074;-53
2022/12/02 07:08:35;;;;;;;45.67;16.00;;;;;;;9.43;100.00;102331.31;5082319;28;20036;-55
2022/12/02 07:11:01;;;;;;;47.90;16.07;;;;;;;9.44;100.00;102333.00;5086526;28;20040;-54
2022/12/02 07:13:27;;;;;;;56.00;17.47;;;;;;;9.42;100.00;102330.50;5083741;28;20036;-57
2022/12/02 07:15:53;;;;;;;45.78;16.60;;;;;;;9.46;100.00;102339.06;5085001;28;20270;-58
2022/12/02 07:18:20;;;;;;;45.03;15.63;;;;;;;9.30;100.00;102332.53;5084107;28;20060;-58
2022/12/02 07:20:47;;;;;;;52.33;18.42;;;;;;;9.41;100.00;102338.66;5083889;28;20044;-57
2022/12/02 07:23:13;;;;;;;56.13;18.20;;;;;;;9.25;100.00;102336.66;5083246;28;20072;-58
2022/12/02 07:25:53;;;;;;;43.75;16.98;;;;;;;9.14;100.00;102335.88;5081925;28;20044;-59
2022/12/02 07:28:35;;;;;;;41.38;15.70;;;;;;;9.28;100.00;102337.19;5079885;28;20033;-56
2022/12/02 07:31:20;;;;;;;48.28;16.05;;;;;;;9.44;100.00;102338.34;5080282;28;20028;-58
2022/12/02 07:33:46;;;;;;;49.63;17.55;;;;;;;9.47;100.00;102346.09;5082033;28;20028;-56
2022/12/02 07:36:12;;;;;;;48.67;16.15;;;;;;;9.57;100.00;102336.16;5081869;28;20047;-57
2022/12/02 07:38:37;;;;;;;45.85;16.60;;;;;;;9.01;100.00;102338.91;5086970;28;20044;-58
2022/12/02 07:41:04;;;;;;;43.90;15.63;;;;;;;9.32;100.00;102340.38;5084414;28;20028;-57
2022/12/02 07:43:30;;;;;;;53.08;16.42;;;;;;;9.18;100.00;102339.06;5082967;28;20040;-57
2022/12/02 07:45:55;;;;;;;55.85;16.38;;;;;;;9.10;100.00;102336.31;5082279;28;20029;-58
2022/12/02 07:48:21;;;;;;;52.40;18.10;;;;;;;9.30;100.00;102343.22;5080123;28;20092;-58
2022/12/02 07:50:46;;;;;;;40.60;15.77;;;;;;;9.28;100.00;102345.22;5079884;28;20262;-58
2022/12/02 07:53:12;;;;;;;42.03;15.57;;;;;;;9.36;100.00;102346.28;5082525;28;20074;-57
2022/12/02 07:55:37;;;;;;;47.97;15.87;;;;;;;9.35;100.00;102344.59;5077201;28;20086;-58
2022/12/02 07:58:02;;;;;;;37.50;14.30;;;;;;;9.18;100.00;102339.06;5076235;28;20044;-56
2022/12/02 08:00:28;;;;;;;42.72;15.68;;;;;;;9.28;100.00;102339.00;5079988;28;20092;-58
2022/12/02 08:02:55;;;;;;;45.23;15.63;;;;;;;9.07;100.00;102347.28;5078587;28;20043;-59
2022/12/02 08:05:24;;;;;;;46.05;16.38;;;;;;;8.98;100.00;102349.84;5075558;28;20036;-58
2022/12/02 08:07:50;;;;;;;46.65;15.88;;;;;;;9.17;100.00;102348.06;5080145;28;20101;-58
2022/12/02 08:10:16;;;;;;;39.78;15.07;;;;;;;9.20;100.00;102342.44;5080957;28;20032;-57
2022/12/02 08:12:42;;;;;;;42.88;16.75;;;;;;;9.29;100.00;102344.22;5079277;28;20040;-57
2022/12/02 08:15:09;;;;;;;41.30;16.23;;;;;;;9.11;100.00;102333.50;5081987;28;20041;-58
2022/12/02 08:17:35;;;;;;;47.63;16.23;;;;;;;9.10;100.00;102341.66;5075697;28;20040;-60
2022/12/02 08:20:04;;;;;;;44.00;16.58;;;;;;;9.12;100.00;102339.66;5082371;28;20061;-58
2022/12/02 08:22:29;;;;;;;43.50;15.57;;;;;;;9.06;100.00;102345.63;5078420;28;20059;-58
2022/12/02 08:24:55;;;;;;;50.30;17.13;;;;;;;9.15;100.00;102339.38;5077306;28;20048;-57
2022/12/02 08:27:21;;;;;;;39.22;15.60;;;;;;;9.28;100.00;102339.00;5074910;28;20119;-57
2022/12/02 08:29:48;;;;;;;47.80;16.15;;;;;;;9.08;100.00;102341.78;5079255;28;20052;-56
2022/12/02 08:32:17;;;;;;;46.63;17.17;;;;;;;9.04;100.00;102343.06;5074651;28;20100;-58
2022/12/02 08:34:44;;;;;;;48.03;19.95;;;;;;;9.20;100.00;102342.44;5081772;28;20060;-56
2022/12/02 08:37:11;;;;;;;43.55;16.25;;;;;;;9.15;100.00;102344.72;5074096;28;20035;-60
2022/12/02 08:39:37;;;;;;;47.80;15.82;;;;;;;9.38;100.00;102339.81;5084626;28;20051;-55
2022/12/02 08:42:03;;;;;;;47.50;18.73;;;;;;;9.17;100.00;102343.59;5080631;28;20036;-57
2022/12/02 08:44:30;;;;;;;52.45;18.55;;;;;;;9.22;100.00;102340.44;5075830;28;20033;-56
2022/12/02 08:46:55;;;;;;;51.03;17.92;;;;;;;9.33;100.00;102347.41;5078090;28;20042;-56
2022/12/02 08:49:21;;;;;;;43.55;16.27;;;;;;;9.32;100.00;102351.94;5077094;28;20037;-57
2022/12/02 08:51:47;;;;;;;48.25;15.88;;;;;;;9.20;100.00;102337.09;5071012;28;20049;-59
2022/12/02 08:54:14;;;;;;;44.83;16.60;;;;;;;9.25;100.00;102350.84;5076355;28;20067;-56
2022/12/02 08:56:40;;;;;;;49.13;17.47;;;;;;;9.18;100.00;102342.59;5078618;28;20121;-53
2022/12/02 08:59:06;;;;;;;;;;;;;;;8.83;100.00;102343.31;5072442;28;20271;-56
2022/12/02 09:01:31;;;;;;;44.37;15.57;;;;;;;9.09;100.00;102343.47;5073316;28;19919;-56
2022/12/02 09:03:57;;;;;;;43.63;17.93;;;;;;;9.08;100.00;102349.78;5075246;28;20036;-54
2022/12/02 09:06:22;;;;;;;44.07;16.67;;;;;;;9.08;100.00;102348.97;5070531;28;20033;-54
2022/12/02 09:08:48;;;;;;;53.42;17.83;;;;;;;9.17;100.00;102335.56;5071783;28;20067;-57
2022/12/02 09:11:13;;;;;;;46.70;16.93;;;;;;;9.23;100.00;102335.97;5072967;28;20042;-56
2022/12/02 09:13:39;;;;;;;53.20;17.92;;;;;;;9.33;100.00;102339.41;5067175;28;20033;-58
2022/12/02 09:16:04;;;;;;;51.30;19.60;;;;;;;9.17;100.00;102342.72;5071536;28;20052;-55
2022/12/02 09:18:30;;;;;;;50.05;18.83;;;;;;;9.24;100.00;102333.16;5072560;28;20075;-55
2022/12/02 09:20:55;;;;;;;50.17;18.80;;;;;;;8.94;100.00;102335.13;5074328;28;20036;-57
2022/12/02 09:23:21;;;;;;;55.83;19.33;;;;;;;8.96;100.00;102338.47;5076341;28;20029;-58
2022/12/02 09:25:46;;;;;;;47.37;19.13;;;;;;;9.30;100.00;102337.88;5075164;28;20067;-58
2022/12/02 09:28:12;;;;;;;49.25;17.92;;;;;;;9.50;100.00;102343.09;5076876;28;20045;-60
2022/12/02 09:30:37;;;;;;;43.63;18.10;;;;;;;9.56;100.00;102333.63;5077704;28;20050;-58
2022/12/02 09:33:03;;;;;;;53.03;18.77;;;;;;;9.38;100.00;102326.47;5074956;28;20060;-56
2022/12/02 09:35:28;;;;;;;55.77;21.17;;;;;;;9.33;100.00;102328.72;5076463;28;20067;-57
2022/12/02 09:37:53;;;;;;;54.87;21.03;;;;;;;9.48;100.00;102329.06;5073585;28;20059;-59
2022/12/02 09:40:19;;;;;;;47.87;18.93;;;;;;;9.24;100.00;102329.63;5073069;28;20037;-58
2022/12/02 09:42:45;;;;;;;51.40;19.83;;;;;;;9.56;100.00;102323.78;5077776;28;20028;-57
2022/12/02 09:45:12;;;;;;;57.85;19.85;;;;;;;9.71;100.00;102318.75;5074692;28;20100;-58
2022/12/02 09:47:37;;;;;;;34.67;12.77;;;;;;;9.56;100.00;102321.13;5078648;28;20033;-60
2022/12/02 09:50:04;;;;;;;52.03;20.60;;;;;;;9.73;100.00;102331.97;5072989;28;20041;-58
2022/12/02 09:52:30;;;;;;;57.75;21.60;;;;;;;9.79;100.00;102335.84;5075934;28;20342;-58
2022/12/02 09:54:58;;;;;;;57.83;21.33;;;;;;;9.70;100.00;102329.59;5073933;28;20037;-59
2022/12/02 09:57:31;;;;;;;49.78;19.35;;;;;;;9.90;100.00;102325.75;5070944;28;20033;-60
2022/12/02 09:59:59;;;;;;;51.15;18.70;;;;;;;10.13;100.00;102321.75;5074787;28;20056;-56
2022/12/02 10:02:38;;;;;;;51.33;20.27;;;;;;;10.41;100.00;102324.31;5079465;28;20053;-58
2022/12/02 10:05:14;;;;;;;47.30;17.83;;;;;;;10.69;100.00;102324.97;5072817;28;20029;-57
2022/12/02 10:07:42;;;;;;;47.90;18.67;;;;;;;10.26;100.00;102321.34;5072419;28;20105;-56
2022/12/02 10:10:12;;;;;;;50.50;20.02;;;;;;;10.23;100.00;102321.66;5073105;28;20040;-56
2022/12/02 10:12:38;;;;;;;44.13;18.02;;;;;;;9.80;100.00;102318.81;5076958;28;20036;-57
2022/12/02 10:15:04;;;;;;;52.65;18.40;;;;;;;9.65;100.00;102311.34;5072531;28;20037;-57
2022/12/02 10:17:30;;;;;;;;;;;;;;;9.60;100.00;102317.16;5078752;28;20040;-58
2022/12/02 10:19:56;;;;;;;46.70;17.43;;;;;;;9.60;100.00;102317.16;5075955;28;19920;-57
2022/12/02 10:22:21;;;;;;;50.95;18.45;;;;;;;9.92;100.00;102314.06;5076564;28;20036;-57
2022/12/02 10:24:48;;;;;;;51.87;18.87;;;;;;;9.74;100.00;102313.09;5078628;28;20037;-58
2022/12/02 10:27:31;;;;;;;52.15;19.10;;;;;;;9.97;100.00;102312.63;5078875;28;20273;-57
2022/12/02 10:30:17;;;;;;;41.72;15.80;;;;;;;10.01;100.00;102323.84;5080727;28;20033;-59
2022/12/02 10:32:57;;;;;;;50.88;20.40;;;;;;;9.84;100.00;102310.34;5079003;28;20063;-57
2022/12/02 10:35:22;;;;;;;40.75;16.38;;;;;;;10.03;100.00;102309.34;5076421;28;20040;-58
2022/12/02 10:37:47;;;;;;;53.23;18.20;;;;;;;9.64;100.00;102311.50;5078587;28;20033;-58
2022/12/02 10:40:17;;;;;;;44.27;17.60;;;;;;;9.73;100.00;102306.06;5077307;28;20143;-56
2022/12/02 10:42:44;;;;;;;54.97;18.15;;;;;;;9.59;100.00;102304.78;5079158;28;20041;-59
2022/12/02 10:45:20;;;;;;;48.85;18.55;;;;;;;9.48;100.00;102297.03;5077122;28;20044;-56
2022/12/02 10:47:47;;;;;;;49.42;18.70;;;;;;;10.06;100.00;102289.47;5075393;28;20059;-58
2022/12/02 10:50:19;;;;;;;53.70;18.55;;;;;;;10.27;100.00;102299.81;5079452;28;20052;-59
2022/12/02 10:52:45;;;;;;;38.30;14.75;;;;;;;9.83;100.00;102302.50;5076938;28;20055;-57
2022/12/02 10:55:11;;;;;;;49.00;17.70;;;;;;;10.09;100.00;102294.50;5079552;28;20040;-57
2022/12/02 10:57:38;;;;;;;44.78;16.92;;;;;;;9.87;100.00;102296.66;5076156;28;20485;-59
2022/12/02 11:00:14;;;;;;;46.22;16.42;;;;;;;10.01;100.00;102291.78;5077913;28;20055;-60
2022/12/02 11:02:56;;;;;;;45.47;14.57;;;;;;;9.98;100.00;102289.41;5081986;28;20029;-58
2022/12/02 11:05:34;;;;;;;52.97;17.65;;;;;;;10.18;100.00;102290.91;5082263;28;20040;-57
2022/12/02 11:08:15;;;;;;;50.72;18.65;;;;;;;10.33;100.00;102287.63;5082326;28;20033;-58
2022/12/02 11:10:44;;;;;;;49.67;18.23;;;;;;;10.29;100.00;102288.94;5082586;28;20032;-58
2022/12/02 11:13:12;;;;;;;54.88;19.48;;;;;;;10.18;100.00;102287.38;5082432;28;20059;-60
2022/12/02 11:15:51;;;;;;;50.08;18.85;;;;;;;10.34;100.00;102291.97;5080587;28;20050;-60